Time;durP1;ratioP1;P1;durP2;ratioP2;P2;SDS_P1;SDS_P2;PMS_P1;PMS_P2;Temp;Humidity;BMP_temperature;BMP_pressure;BME280_temperature;BME280_humidity;BME280_pressure;Samples;Min_cycle;Max_cycle;Signal;HPM_P1;HPM_P2
2022/12/24 00:01:13;;;;;;;33.47;6.88;;;;;;;11.28;78.93;100422.47;3608885;39;20066;-63
2022/12/24 00:03:39;;;;;;;31.88;6.32;;;;;;;11.29;78.73;100426.00;3608553;39;20054;-64
2022/12/24 00:06:07;;;;;;;30.25;5.93;;;;;;;11.28;78.81;100417.09;3607712;39;20314;-64
2022/12/24 00:08:34;;;;;;;29.35;6.32;;;;;;;11.27;78.66;100411.84;3608132;39;20054;-64
2022/12/24 00:11:00;;;;;;;26.35;6.07;;;;;;;11.36;78.49;100430.00;3610088;39;20580;-64
2022/12/24 00:13:25;;;;;;;31.77;5.70;;;;;;;11.35;78.58;100431.84;3606502;39;20454;-64
2022/12/24 00:15:51;;;;;;;30.30;5.78;;;;;;;11.37;79.04;100426.34;3607299;39;20063;-64
2022/12/24 00:18:17;;;;;;;28.60;6.40;;;;;;;11.37;78.77;100424.50;3609338;39;20062;-64
2022/12/24 00:20:47;;;;;;;26.95;6.28;;;;;;;11.37;78.30;100434.41;3607998;39;20304;-63
2022/12/24 00:23:13;;;;;;;28.63;5.88;;;;;;;11.37;78.56;100435.28;3609213;39;20056;-64
2022/12/24 00:25:39;;;;;;;23.95;5.93;;;;;;;11.35;78.36;100445.31;3609186;39;20132;-63
2022/12/24 00:28:05;;;;;;;26.45;5.65;;;;;;;11.34;79.18;100440.00;3610748;39;20390;-63
2022/12/24 00:30:30;;;;;;;26.85;5.90;;;;;;;11.36;79.02;100444.31;3605898;39;20062;-63
2022/12/24 00:32:56;;;;;;;27.65;6.05;;;;;;;11.34;78.88;100438.19;3606409;39;20393;-63
2022/12/24 00:35:22;;;;;;;26.02;6.10;;;;;;;11.37;78.73;100446.03;3608983;39;20062;-63
2022/12/24 00:37:49;;;;;;;32.05;5.95;;;;;;;11.37;78.92;100440.66;3606973;39;20329;-63
2022/12/24 00:40:16;;;;;;;23.67;5.75;;;;;;;11.41;78.65;100451.19;3609667;39;20425;-62
2022/12/24 00:42:42;;;;;;;25.63;5.25;;;;;;;11.42;78.22;100459.19;3607996;39;20416;-64
2022/12/24 00:45:09;;;;;;;28.20;5.90;;;;;;;11.26;78.33;100440.56;3605414;39;20371;-62
2022/12/24 00:47:35;;;;;;;25.67;5.57;;;;;;;11.38;78.62;100469.31;3605729;39;20047;-63
2022/12/24 00:50:01;;;;;;;26.40;6.57;;;;;;;11.39;78.19;100472.84;3607238;39;20051;-62
2022/12/24 00:52:27;;;;;;;29.33;5.95;;;;;;;11.37;78.39;100480.16;3610655;39;20046;-63
2022/12/24 00:54:52;;;;;;;28.55;6.57;;;;;;;11.32;77.97;100487.69;3603014;39;20338;-63
2022/12/24 00:57:18;;;;;;;28.75;5.65;;;;;;;11.32;78.33;100488.56;3606140;39;20418;-63
2022/12/24 00:59:44;;;;;;;24.42;5.75;;;;;;;11.28;78.71;100484.34;3607739;39;20059;-63
2022/12/24 01:02:09;;;;;;;30.38;6.78;;;;;;;11.26;78.49;100494.38;3607498;39;20157;-63
2022/12/24 01:07:19;;;;;;;23.08;6.00;;;;;;;11.12;78.20;100478.34;3607820;39;20326;-63
2022/12/24 01:09:45;;;;;;;33.95;6.32;;;;;;;11.05;78.36;100482.44;3607736;39;20058;-63
2022/12/24 01:12:10;;;;;;;29.70;5.97;;;;;;;11.05;78.22;100477.91;3605471;39;20051;-63
2022/12/24 01:14:37;;;;;;;27.75;6.45;;;;;;;11.11;78.49;100484.69;3604532;39;20274;-64
2022/12/24 01:17:03;;;;;;;22.02;5.57;;;;;;;11.11;78.63;100493.63;3609889;39;20621;-63
2022/12/24 01:19:29;;;;;;;26.83;6.55;;;;;;;11.08;78.76;100501.03;3613188;39;20070;-65
2022/12/24 01:21:55;;;;;;;30.50;7.03;;;;;;;11.09;78.02;100510.81;3611432;39;20368;-63
2022/12/24 01:24:20;;;;;;;24.98;5.90;;;;;;;11.02;78.42;100514.91;3612242;39;20452;-63
2022/12/24 01:26:46;;;;;;;30.90;6.53;;;;;;;11.03;78.16;100517.47;3607757;39;20066;-63
2022/12/24 01:29:12;;;;;;;30.42;6.85;;;;;;;11.01;78.86;100519.44;3608533;39;20313;-64
2022/12/24 01:31:37;;;;;;;29.05;6.93;;;;;;;10.98;79.21;100524.16;3606239;39;20091;-64
2022/12/24 01:34:03;;;;;;;25.75;6.57;;;;;;;10.93;78.89;100514.56;3609099;39;20059;-63
2022/12/24 01:36:29;;;;;;;26.52;6.15;;;;;;;10.92;79.05;100528.13;3610595;39;20059;-64
2022/12/24 01:38:55;;;;;;;33.78;7.65;;;;;;;10.87;79.17;100523.03;3607371;39;20173;-64
2022/12/24 01:44:25;;;;;;;27.50;6.22;;;;;;;10.78;79.53;100534.41;3606820;39;20413;-63
2022/12/24 01:47:05;;;;;;;24.63;6.20;;;;;;;10.71;80.06;100537.63;3606017;39;20377;-63
2022/12/24 01:49:32;;;;;;;29.80;6.53;;;;;;;10.73;80.04;100546.47;3605947;39;20316;-63
2022/12/24 01:52:06;;;;;;;32.33;6.63;;;;;;;10.74;80.31;100542.81;3602764;39;20051;-63
2022/12/24 01:54:59;;;;;;;28.00;6.30;;;;;;;10.73;80.95;100536.56;3607228;39;20366;-64
2022/12/24 01:57:33;;;;;;;33.47;6.65;;;;;;;10.75;80.53;100544.53;3605955;39;20043;-63
2022/12/24 02:00:06;;;;;;;35.88;6.90;;;;;;;10.76;80.67;100544.44;3606388;39;20055;-63
2022/12/24 02:02:33;;;;;;;23.15;5.95;;;;;;;10.79;80.86;100536.16;3608660;39;20051;-63
2022/12/24 02:05:23;;;;;;;30.15;6.53;;;;;;;10.78;80.95;100544.31;3607576;39;20054;-63
2022/12/24 02:07:50;;;;;;;33.13;6.38;;;;;;;10.80;81.49;100554.00;3606732;39;20096;-63
2022/12/24 02:10:16;;;;;;;29.70;6.38;;;;;;;10.83;81.49;100559.19;3608959;39;20071;-64
2022/12/24 02:12:45;;;;;;;31.50;7.00;;;;;;;10.89;81.53;100565.97;3606650;39;20412;-63
2022/12/24 02:15:16;;;;;;;30.85;6.07;;;;;;;10.78;81.10;100542.47;3608472;39;20116;-63
2022/12/24 02:18:18;;;;;;;29.08;6.13;;;;;;;10.95;81.19;100565.56;3605044;39;20047;-64
2022/12/24 02:21:16;;;;;;;28.92;7.47;;;;;;;10.96;81.36;100566.44;3607806;39;20058;-63
2022/12/24 02:24:23;;;;;;;29.10;7.63;;;;;;;10.98;81.69;100573.44;3604699;39;20110;-64
2022/12/24 02:27:09;;;;;;;31.92;6.45;;;;;;;10.99;81.52;100575.16;3605941;39;20066;-63
2022/12/24 02:30:10;;;;;;;27.55;6.47;;;;;;;11.03;82.10;100575.78;3604092;39;20051;-64
2022/12/24 02:32:55;;;;;;;37.03;6.95;;;;;;;10.89;81.82;100552.53;3603949;39;20051;-64
2022/12/24 02:35:40;;;;;;;32.33;5.82;;;;;;;11.10;81.70;100580.69;3604779;39;20413;-64
2022/12/24 02:38:39;;;;;;;31.17;5.78;;;;;;;11.12;81.77;100591.31;3607815;39;20083;-63
2022/12/24 02:41:23;;;;;;;29.00;5.80;;;;;;;11.13;81.64;100587.66;3608213;39;20088;-64
2022/12/24 02:43:54;;;;;;;32.45;5.97;;;;;;;11.16;81.88;100587.44;3609404;39;20063;-64
2022/12/24 02:46:31;;;;;;;29.30;6.65;;;;;;;11.17;81.93;100580.25;3609871;39;20417;-64
2022/12/24 02:48:59;;;;;;;34.10;7.60;;;;;;;11.14;82.08;100581.31;3609266;39;20066;-64
2022/12/24 02:51:25;;;;;;;34.70;6.53;;;;;;;11.17;82.07;100581.13;3611184;39;20066;-64
2022/12/24 02:53:51;;;;;;;35.20;6.78;;;;;;;11.16;82.18;100590.13;3609259;39;20401;-64
2022/12/24 02:56:49;;;;;;;30.70;6.10;;;;;;;11.14;82.33;100584.00;3610495;39;20095;-64
2022/12/24 02:59:42;;;;;;;34.17;6.05;;;;;;;11.14;82.40;100587.56;3611575;39;20128;-64
2022/12/24 03:02:30;;;;;;;30.73;5.95;;;;;;;11.17;81.57;100588.34;3613590;39;20120;-64
2022/12/24 03:05:19;;;;;;;27.95;5.78;;;;;;;11.00;82.40;100563.41;3610307;39;20055;-64
2022/12/24 03:08:08;;;;;;;28.95;6.78;;;;;;;11.17;82.53;100594.56;3610794;39;20077;-64
2022/12/24 03:11:09;;;;;;;27.95;6.03;;;;;;;11.19;82.44;100598.00;3609913;39;20051;-63
2022/12/24 03:13:36;;;;;;;31.40;5.95;;;;;;;11.21;82.66;100601.47;3608286;39;20051;-64
2022/12/24 03:16:11;;;;;;;27.50;5.82;;;;;;;11.25;82.75;100600.28;3607584;39;20095;-63
2022/12/24 03:18:43;;;;;;;27.98;6.20;;;;;;;11.26;82.13;100599.31;3610044;39;20119;-64
2022/12/24 03:21:35;;;;;;;27.02;6.32;;;;;;;11.29;82.37;100593.72;3606773;39;20050;-64
2022/12/24 03:24:02;;;;;;;28.60;6.20;;;;;;;11.31;82.41;100597.16;3607192;39;20147;-63
2022/12/24 03:26:32;;;;;;;27.40;5.60;;;;;;;11.36;82.14;100607.63;3609563;39;20078;-63
2022/12/24 03:28:58;;;;;;;25.40;5.65;;;;;;;11.36;82.17;100604.94;3606700;39;20066;-63
2022/12/24 03:31:24;;;;;;;25.55;5.57;;;;;;;11.37;81.83;100606.66;3608469;39;20063;-64
2022/12/24 03:33:50;;;;;;;23.05;5.72;;;;;;;11.42;82.01;100609.00;3605702;39;20057;-63
2022/12/24 03:36:17;;;;;;;26.27;6.22;;;;;;;11.45;82.08;100609.69;3610806;39;20305;-63
2022/12/24 03:38:42;;;;;;;22.88;5.72;;;;;;;11.47;81.59;100613.13;3609238;39;20043;-64
2022/12/24 03:41:08;;;;;;;26.48;5.22;;;;;;;11.48;81.50;100613.97;3611052;39;20052;-64
2022/12/24 03:43:34;;;;;;;26.85;5.50;;;;;;;11.44;81.84;100615.16;3608277;39;20053;-63
2022/12/24 03:46:06;;;;;;;27.20;5.45;;;;;;;11.46;81.95;100627.56;3605794;39;20066;-64
2022/12/24 03:48:34;;;;;;;19.73;5.17;;;;;;;11.46;81.92;100629.38;3607272;39;20051;-64
2022/12/24 03:51:01;;;;;;;18.65;4.90;;;;;;;11.44;82.03;100623.22;3604153;39;20058;-63
2022/12/24 03:53:26;;;;;;;24.70;5.82;;;;;;;11.46;82.03;100626.69;3609138;39;20062;-63
2022/12/24 03:55:52;;;;;;;24.52;5.80;;;;;;;11.44;82.34;100620.53;3611090;39;20055;-63
2022/12/24 03:58:18;;;;;;;18.77;5.07;;;;;;;11.39;82.54;100612.81;3605455;39;20055;-63
2022/12/24 04:00:44;;;;;;;25.65;5.88;;;;;;;11.39;82.54;100628.94;3607844;39;20074;-63
2022/12/24 04:03:09;;;;;;;27.85;6.05;;;;;;;11.38;82.94;100628.09;3607611;39;20247;-63
2022/12/24 04:05:35;;;;;;;21.73;5.13;;;;;;;11.33;82.89;100622.16;3606934;39;20045;-63
2022/12/24 04:08:01;;;;;;;20.98;5.20;;;;;;;11.38;82.72;100628.09;3607950;39;20066;-63
2022/12/24 04:10:26;;;;;;;35.20;14.75;;;;;;;11.39;82.79;100626.25;3608110;39;20053;-63
2022/12/24 04:12:52;;;;;;;24.92;5.03;;;;;;;11.38;83.06;100629.91;3607690;39;20059;-63
2022/12/24 04:15:17;;;;;;;22.00;5.57;;;;;;;11.34;83.69;100640.00;3609935;39;20298;-63
2022/12/24 04:17:43;;;;;;;25.63;5.03;;;;;;;11.34;83.21;100634.63;3606890;39;20202;-63
2022/12/24 04:20:09;;;;;;;22.98;5.13;;;;;;;11.34;83.49;100640.00;3607372;39;20066;-63
2022/12/24 04:22:35;;;;;;;20.85;5.40;;;;;;;11.36;83.24;100632.72;3606679;39;20051;-63
2022/12/24 04:25:01;;;;;;;23.08;5.30;;;;;;;11.35;82.94;100647.13;3607985;39;20066;-63
2022/12/24 04:27:26;;;;;;;30.98;5.35;;;;;;;11.34;83.52;100656.16;3607846;39;20310;-63
2022/12/24 04:29:52;;;;;;;27.92;5.90;;;;;;;11.33;83.05;100649.06;3608152;39;20059;-63
2022/12/24 04:32:17;;;;;;;23.02;5.22;;;;;;;11.35;83.47;100647.13;3608525;39;20054;-63
2022/12/24 04:34:43;;;;;;;26.73;5.68;;;;;;;11.35;83.60;100652.53;3607333;39;20075;-63
2022/12/24 04:37:08;;;;;;;25.98;5.85;;;;;;;11.34;83.63;100650.78;3608353;39;20086;-63
2022/12/24 04:39:34;;;;;;;29.63;6.20;;;;;;;11.32;83.72;100668.88;3608388;39;20058;-63
2022/12/24 04:41:59;;;;;;;26.35;5.85;;;;;;;11.33;83.58;100664.34;3607063;39;20302;-64
2022/12/24 04:44:25;;;;;;;25.10;5.72;;;;;;;11.30;83.14;100657.34;3608682;39;20066;-64
2022/12/24 04:46:51;;;;;;;23.15;5.47;;;;;;;11.30;83.21;100654.66;3606449;39;20063;-63
2022/12/24 04:49:16;;;;;;;25.80;5.45;;;;;;;11.30;82.80;100659.16;3609942;39;20381;-63
2022/12/24 04:51:42;;;;;;;30.63;5.50;;;;;;;11.27;83.42;100659.38;3606522;39;20058;-64
2022/12/24 04:54:07;;;;;;;28.70;5.78;;;;;;;11.22;83.09;100656.97;3599183;39;20058;-64
2022/12/24 04:56:33;;;;;;;29.70;5.78;;;;;;;11.18;83.37;100666.22;3605729;39;20292;-64
2022/12/24 04:59:00;;;;;;;29.38;5.43;;;;;;;11.20;83.84;100664.31;3607490;39;20071;-64
2022/12/24 05:01:30;;;;;;;27.50;5.32;;;;;;;11.19;83.50;100669.78;3609349;39;20069;-63
2022/12/24 05:03:56;;;;;;;27.90;4.68;;;;;;;11.12;83.83;100663.94;3607759;39;20119;-64
2022/12/24 05:06:32;;;;;;;22.58;4.82;;;;;;;11.08;83.91;100659.75;3612124;39;20298;-65
2022/12/24 05:08:58;;;;;;;21.92;4.85;;;;;;;11.14;84.26;100672.78;3598592;39;20326;-63
2022/12/24 05:11:24;;;;;;;24.88;5.20;;;;;;;11.12;84.31;100672.03;3606275;39;20151;-64
2022/12/24 05:13:50;;;;;;;26.95;5.40;;;;;;;11.09;84.73;100678.47;3605402;39;20055;-63
2022/12/24 05:16:19;;;;;;;26.10;6.18;;;;;;;11.09;84.68;100682.97;3607972;39;20183;-64
2022/12/24 05:18:45;;;;;;;30.42;6.05;;;;;;;11.09;84.70;100677.59;3606050;39;20558;-64
2022/12/24 05:21:16;;;;;;;23.63;4.78;;;;;;;11.07;84.13;100669.66;3607652;39;20059;-63
2022/12/24 05:26:45;;;;;;;24.45;5.18;;;;;;;11.04;84.33;100660.94;3606200;39;20164;-64
2022/12/24 05:29:11;;;;;;;24.67;4.95;;;;;;;10.93;84.39;100651.72;3608702;39;20051;-64
2022/12/24 05:31:39;;;;;;;22.73;4.55;;;;;;;11.07;84.29;100669.66;3605784;39;20055;-64
2022/12/24 05:34:06;;;;;;;24.70;5.43;;;;;;;11.07;83.78;100674.19;3605036;39;20051;-64
2022/12/24 05:36:32;;;;;;;26.60;5.00;;;;;;;11.06;83.60;100667.91;3605345;39;20127;-63
2022/12/24 05:38:58;;;;;;;27.98;5.22;;;;;;;11.10;83.74;100679.31;3605304;39;20067;-65
2022/12/24 05:41:23;;;;;;;30.33;5.53;;;;;;;11.10;83.38;100673.94;3610378;39;20046;-63
2022/12/24 05:43:50;;;;;;;25.10;6.43;;;;;;;10.98;83.00;100653.25;3613075;39;20054;-66
2022/12/24 05:46:19;;;;;;;26.05;5.70;;;;;;;11.06;83.28;100680.50;3612062;39;20430;-64
2022/12/24 05:48:47;;;;;;;25.15;5.18;;;;;;;11.08;83.43;100694.72;3612157;39;20133;-64
2022/12/24 05:51:18;;;;;;;28.92;5.95;;;;;;;11.07;83.08;100701.06;3611240;39;20039;-64
2022/12/24 05:53:45;;;;;;;25.08;5.72;;;;;;;11.08;83.24;100710.84;3609275;39;20075;-64
2022/12/24 05:56:16;;;;;;;28.02;5.65;;;;;;;11.09;83.57;100709.88;3609083;39;20151;-64
2022/12/24 05:58:43;;;;;;;25.70;5.47;;;;;;;11.06;82.92;100702.00;3607476;39;20055;-64
2022/12/24 06:01:09;;;;;;;21.50;5.35;;;;;;;11.06;83.00;100708.25;3608393;39;20167;-64
2022/12/24 06:03:36;;;;;;;22.30;5.30;;;;;;;11.06;83.17;100715.47;3606535;39;20374;-64
2022/12/24 06:06:08;;;;;;;27.00;6.18;;;;;;;11.06;82.65;100718.16;3607563;39;20493;-65
2022/12/24 06:08:36;;;;;;;29.55;6.68;;;;;;;11.06;82.53;100723.53;3606652;39;20062;-64
2022/12/24 06:11:07;;;;;;;26.98;5.95;;;;;;;11.03;82.52;100711.16;3607782;39;20063;-64
2022/12/24 06:13:34;;;;;;;22.75;5.72;;;;;;;10.99;82.43;100708.78;3612133;39;20059;-64
2022/12/24 06:16:03;;;;;;;24.30;5.35;;;;;;;10.99;82.66;100714.16;3611180;39;20051;-64
2022/12/24 06:18:32;;;;;;;22.33;5.45;;;;;;;10.95;81.87;100705.41;3610192;39;20058;-64
2022/12/24 06:20:59;;;;;;;28.75;5.78;;;;;;;10.79;82.52;100692.13;3613565;39;20050;-64
2022/12/24 06:23:28;;;;;;;28.05;5.80;;;;;;;10.91;82.02;100723.59;3612259;39;20116;-64
2022/12/24 06:25:59;;;;;;;26.02;6.28;;;;;;;10.81;81.82;100700.06;3611499;39;20300;-64
2022/12/24 06:28:29;;;;;;;29.67;6.00;;;;;;;10.86;81.60;100725.69;3611671;39;20121;-64
2022/12/24 06:30:55;;;;;;;27.63;5.82;;;;;;;10.86;81.62;100732.91;3610867;39;20063;-64
2022/12/24 06:33:21;;;;;;;27.67;6.07;;;;;;;10.80;81.95;100727.94;3607540;39;20383;-64
2022/12/24 06:35:47;;;;;;;30.67;6.60;;;;;;;10.79;82.33;100740.50;3608925;39;20493;-64
2022/12/24 06:38:14;;;;;;;25.38;6.13;;;;;;;10.74;81.93;100742.63;3608839;39;20370;-63
2022/12/24 06:40:43;;;;;;;32.00;6.15;;;;;;;10.75;82.07;100736.31;3609525;39;20073;-63
2022/12/24 06:43:09;;;;;;;24.65;6.03;;;;;;;10.71;81.83;100748.19;3611080;39;20382;-63
2022/12/24 06:45:35;;;;;;;29.75;6.82;;;;;;;10.70;82.24;100754.53;3610309;39;20102;-64
2022/12/24 06:48:01;;;;;;;30.48;5.90;;;;;;;10.66;82.54;100744.94;3609922;39;20416;-63
2022/12/24 06:50:27;;;;;;;27.63;7.22;;;;;;;10.49;82.31;100720.94;3610016;39;20105;-63
2022/12/24 06:52:53;;;;;;;29.13;6.45;;;;;;;10.65;82.32;100737.81;3611654;39;20126;-63
2022/12/24 06:55:18;;;;;;;24.05;6.30;;;;;;;10.65;82.45;100757.50;3610163;39;20385;-64
2022/12/24 06:57:44;;;;;;;29.45;6.72;;;;;;;10.68;82.72;100759.13;3613385;39;20070;-63
2022/12/24 07:00:12;;;;;;;35.88;7.20;;;;;;;10.70;82.01;100757.22;3610777;39;20059;-64
2022/12/24 07:02:43;;;;;;;22.50;5.80;;;;;;;10.71;81.96;100760.78;3608441;39;20054;-63
2022/12/24 07:05:11;;;;;;;30.52;6.28;;;;;;;10.69;81.44;100756.38;3610772;39;20054;-64
2022/12/24 07:07:41;;;;;;;23.98;6.30;;;;;;;10.65;81.86;100764.72;3607183;39;20313;-64
2022/12/24 07:10:14;;;;;;;27.88;6.35;;;;;;;10.64;81.64;100763.00;3609832;39;20406;-63
2022/12/24 07:12:40;;;;;;;28.00;6.38;;;;;;;10.45;82.42;100747.16;3610236;39;20414;-63
2022/12/24 07:15:07;;;;;;;32.88;7.50;;;;;;;10.60;82.13;100767.69;3609090;39;20047;-64
2022/12/24 07:17:32;;;;;;;28.20;6.88;;;;;;;10.62;82.26;100772.97;3605973;39;20062;-64
2022/12/24 07:19:58;;;;;;;29.10;6.80;;;;;;;10.59;82.07;100770.47;3607780;39;20071;-63
2022/12/24 07:22:24;;;;;;;26.30;5.90;;;;;;;10.57;82.52;100769.72;3606452;39;20069;-64
2022/12/24 07:24:49;;;;;;;29.42;6.20;;;;;;;10.52;83.02;100770.00;3605976;39;20066;-64
2022/12/24 07:27:15;;;;;;;31.13;5.93;;;;;;;10.50;82.81;100771.94;3608704;39;20620;-64
2022/12/24 07:29:41;;;;;;;31.58;7.32;;;;;;;10.53;83.45;100776.22;3609059;39;20224;-63
2022/12/24 07:32:06;;;;;;;34.03;6.90;;;;;;;10.42;82.91;100774.22;3608768;39;20067;-64
2022/12/24 07:34:32;;;;;;;25.25;5.60;;;;;;;10.47;83.08;100798.13;3603623;39;20405;-64
2022/12/24 07:36:57;;;;;;;30.02;6.75;;;;;;;10.49;83.67;100798.88;3606982;39;21667;-64
2022/12/24 07:39:23;;;;;;;29.02;6.15;;;;;;;10.49;83.50;100807.81;3606420;39;20062;-64
2022/12/24 07:41:49;;;;;;;26.30;5.75;;;;;;;10.49;83.32;100806.94;3607172;39;20413;-64
2022/12/24 07:44:16;;;;;;;35.47;6.63;;;;;;;10.47;83.82;100806.19;3608135;39;20054;-64
2022/12/24 07:46:43;;;;;;;29.38;6.47;;;;;;;10.45;83.80;100801.75;3608105;39;20059;-64
2022/12/24 07:49:09;;;;;;;30.25;6.47;;;;;;;10.45;83.58;100804.44;3609170;39;20062;-65
2022/12/24 07:51:35;;;;;;;29.35;6.32;;;;;;;10.49;83.57;100817.69;3606724;39;20086;-64
2022/12/24 07:54:03;;;;;;;25.27;5.93;;;;;;;10.18;84.03;100776.53;3610468;39;20050;-64
2022/12/24 07:56:30;;;;;;;30.95;6.03;;;;;;;10.49;83.82;100823.06;3608256;39;20140;-64
2022/12/24 07:58:55;;;;;;;31.65;5.53;;;;;;;10.45;84.13;100820.56;3608473;39;20071;-64
2022/12/24 08:01:21;;;;;;;27.63;6.00;;;;;;;10.47;84.00;100825.88;3607359;39;20581;-65
2022/12/24 08:03:47;;;;;;;24.17;5.28;;;;;;;10.58;84.22;100835.94;3608759;39;20055;-65
2022/12/24 08:06:12;;;;;;;29.70;5.45;;;;;;;10.64;83.69;100843.63;3608394;39;20317;-64
2022/12/24 08:08:38;;;;;;;28.23;6.03;;;;;;;10.67;83.55;100854.19;3608306;39;20058;-66
2022/12/24 08:11:06;;;;;;;27.95;5.05;;;;;;;10.65;83.80;100851.59;3609565;39;20401;-64
2022/12/24 08:13:33;;;;;;;29.70;6.47;;;;;;;10.69;83.26;100860.34;3608737;39;20213;-64
2022/12/24 08:15:59;;;;;;;27.42;6.10;;;;;;;10.69;83.58;100863.03;3609524;39;20047;-64
2022/12/24 08:18:25;;;;;;;25.15;5.38;;;;;;;10.70;83.12;100867.44;3603338;39;20415;-65
2022/12/24 08:20:51;;;;;;;25.67;6.10;;;;;;;10.71;83.09;100869.16;3605922;39;20399;-65
2022/12/24 08:23:17;;;;;;;25.50;5.22;;;;;;;10.71;83.76;100871.84;3608132;39;20059;-65
2022/12/24 08:25:46;;;;;;;23.17;5.47;;;;;;;10.74;83.78;100873.50;3605031;39;20160;-65
2022/12/24 08:28:16;;;;;;;27.55;5.78;;;;;;;10.75;83.20;100878.81;3606378;39;20059;-64
2022/12/24 08:30:44;;;;;;;27.20;6.10;;;;;;;10.77;83.40;100882.25;3607350;39;20059;-64
2022/12/24 08:33:11;;;;;;;27.90;6.03;;;;;;;10.81;83.32;100880.22;3610385;39;20412;-64
2022/12/24 08:35:36;;;;;;;30.50;6.22;;;;;;;10.83;83.56;100889.94;3607778;39;20116;-65
2022/12/24 08:38:02;;;;;;;24.98;6.28;;;;;;;10.85;83.36;100895.22;3607096;39;20050;-64
2022/12/24 08:40:28;;;;;;;26.27;5.93;;;;;;;10.87;83.25;100888.78;3607725;39;20428;-64
2022/12/24 08:42:54;;;;;;;26.02;5.70;;;;;;;10.90;82.66;100885.88;3605365;39;20305;-63
2022/12/24 08:45:20;;;;;;;25.00;5.93;;;;;;;10.91;82.70;100895.72;3609616;39;20075;-64
2022/12/24 08:47:45;;;;;;;27.15;5.90;;;;;;;10.95;83.02;100891.00;3607708;39;20059;-64
2022/12/24 08:50:12;;;;;;;26.60;5.78;;;;;;;10.95;83.16;100896.38;3607323;39;20401;-64
2022/12/24 08:52:38;;;;;;;26.40;5.65;;;;;;;10.34;83.18;100798.88;3607300;39;20116;-64
2022/12/24 08:55:04;;;;;;;25.30;5.20;;;;;;;10.98;83.37;100903.41;3608774;39;20059;-64
2022/12/24 08:57:29;;;;;;;24.27;5.93;;;;;;;10.99;82.46;100908.66;3606897;39;20098;-64
2022/12/24 08:59:55;;;;;;;36.40;6.78;;;;;;;10.98;82.57;100911.47;3606733;39;20054;-64
2022/12/24 09:02:21;;;;;;;23.65;6.28;;;;;;;10.97;82.41;100909.72;3607764;39;20074;-64
2022/12/24 09:04:47;;;;;;;25.15;5.47;;;;;;;10.95;82.86;100911.66;3604417;39;20062;-64
2022/12/24 09:07:12;;;;;;;32.75;6.75;;;;;;;10.97;82.80;100913.28;3607654;39;20062;-64
2022/12/24 09:09:38;;;;;;;27.17;5.30;;;;;;;10.95;82.74;100925.09;3607869;39;20089;-64
2022/12/24 09:12:06;;;;;;;24.80;5.82;;;;;;;10.91;83.10;100917.22;3609004;39;20055;-64
2022/12/24 09:14:32;;;;;;;25.25;5.68;;;;;;;10.93;82.96;100920.66;3609240;39;20074;-64
2022/12/24 09:16:58;;;;;;;34.75;6.40;;;;;;;10.95;82.84;100941.25;3606680;39;20063;-64
2022/12/24 09:19:24;;;;;;;26.60;5.82;;;;;;;10.98;83.31;100938.38;3609917;39;20134;-64
2022/12/24 09:21:49;;;;;;;30.80;6.45;;;;;;;10.93;83.10;100941.31;3607142;39;20370;-64
2022/12/24 09:24:15;;;;;;;28.05;5.22;;;;;;;11.06;83.41;100957.56;3606384;39;21473;-64
2022/12/24 09:26:41;;;;;;;31.50;6.88;;;;;;;11.12;82.67;100970.66;3609053;39;20802;-64
2022/12/24 09:29:09;;;;;;;27.85;5.80;;;;;;;11.01;82.84;100948.94;3608765;39;20157;-64
2022/12/24 09:31:35;;;;;;;31.75;5.90;;;;;;;11.25;82.94;100965.38;3605593;39;20062;-64
2022/12/24 09:34:01;;;;;;;34.15;6.32;;;;;;;11.34;82.36;100960.28;3607488;39;20055;-61
2022/12/24 09:36:26;;;;;;;31.52;6.72;;;;;;;11.40;82.60;100972.47;3608829;39;20050;-64
2022/12/24 09:38:52;;;;;;;28.48;6.13;;;;;;;11.45;81.69;100972.19;3605001;39;20448;-64
2022/12/24 09:41:38;;;;;;;27.60;5.75;;;;;;;11.48;81.53;100977.38;3607688;39;20050;-65
2022/12/24 09:44:41;;;;;;;29.08;6.13;;;;;;;11.38;81.37;100947.47;3607338;39;20050;-64
2022/12/24 09:47:38;;;;;;;27.13;6.15;;;;;;;11.56;81.19;100973.25;3608584;39;20082;-64
2022/12/24 09:50:47;;;;;;;28.50;6.43;;;;;;;11.61;80.92;100983.72;3608688;39;20061;-65
2022/12/24 09:53:37;;;;;;;28.33;6.18;;;;;;;11.61;81.06;100991.81;3575620;39;20091;-64
2022/12/24 09:56:21;;;;;;;34.10;6.97;;;;;;;11.65;80.96;100993.34;3604632;39;20069;-65
2022/12/24 09:58:57;;;;;;;27.10;6.18;;;;;;;11.65;80.60;100992.47;3608509;39;20058;-64
2022/12/24 10:01:24;;;;;;;29.70;6.88;;;;;;;11.52;80.69;100984.31;3608030;39;20056;-64
2022/12/24 10:03:50;;;;;;;30.20;5.93;;;;;;;11.63;80.80;101014.09;3608577;39;20049;-64
2022/12/24 10:06:36;;;;;;;28.50;6.32;;;;;;;11.63;80.73;101004.19;3611498;39;20341;-64
2022/12/24 10:09:11;;;;;;;27.83;5.78;;;;;;;11.65;80.46;101006.81;3605037;39;22054;-64
2022/12/24 10:12:13;;;;;;;32.42;6.57;;;;;;;11.67;79.88;101012.97;3605879;39;20059;-65
2022/12/24 10:15:00;;;;;;;31.58;7.05;;;;;;;11.72;80.18;101005.44;3607933;39;20512;-64
2022/12/24 10:17:53;;;;;;;27.33;6.38;;;;;;;11.76;79.96;101006.97;3611174;39;20309;-64
2022/12/24 10:20:33;;;;;;;29.23;6.55;;;;;;;11.78;79.93;100994.28;3607782;39;20051;-63
2022/12/24 10:23:18;;;;;;;31.40;7.30;;;;;;;11.80;79.91;101007.66;3606191;39;20058;-64
2022/12/24 10:26:21;;;;;;;32.08;6.80;;;;;;;11.77;79.67;101003.31;3608945;39;20055;-63
2022/12/24 10:29:18;;;;;;;30.20;6.47;;;;;;;11.79;79.55;101006.75;3610995;39;20057;-63
2022/12/24 10:32:09;;;;;;;29.55;7.38;;;;;;;11.83;79.58;101000.25;3606255;39;20126;-63
2022/12/24 10:35:01;;;;;;;31.05;6.13;;;;;;;11.84;79.50;100999.31;3607115;39;20055;-64
2022/12/24 10:37:30;;;;;;;26.27;6.32;;;;;;;11.73;79.08;100974.84;3608570;39;20067;-64
2022/12/24 10:39:59;;;;;;;25.70;6.30;;;;;;;11.89;78.98;101006.22;3608757;39;20050;-65
2022/12/24 10:42:41;;;;;;;29.83;5.80;;;;;;;11.84;78.69;101007.38;3605898;39;20320;-65
2022/12/24 10:45:15;;;;;;;29.25;6.07;;;;;;;11.88;78.56;101017.97;3607628;39;20065;-65
2022/12/24 10:47:45;;;;;;;30.50;6.35;;;;;;;11.88;78.77;101017.97;3610450;39;20059;-64
2022/12/24 10:50:34;;;;;;;30.25;6.63;;;;;;;11.88;79.13;101004.50;3598678;39;20070;-65
2022/12/24 10:53:28;;;;;;;27.40;6.30;;;;;;;11.90;78.77;101006.13;3606661;39;20055;-64
2022/12/24 10:56:11;;;;;;;23.27;6.47;;;;;;;11.92;78.67;101004.19;3607599;39;20054;-65
2022/12/24 10:58:45;;;;;;;26.52;5.97;;;;;;;11.95;78.97;101009.38;3609063;39;20061;-65
2022/12/24 11:01:12;;;;;;;28.00;6.20;;;;;;;12.06;78.55;101019.47;3609950;39;20082;-64
2022/12/24 11:03:38;;;;;;;27.10;6.78;;;;;;;12.19;78.55;101014.16;3602066;39;20138;-65
2022/12/24 11:06:20;;;;;;;25.50;6.75;;;;;;;12.32;78.56;101015.91;3608474;39;20055;-65
2022/12/24 11:08:46;;;;;;;26.00;6.70;;;;;;;12.41;77.52;101024.38;3611392;39;20058;-65
2022/12/24 11:11:20;;;;;;;26.13;5.80;;;;;;;12.14;76.99;100976.69;3610125;39;20064;-65
2022/12/24 11:13:56;;;;;;;25.20;6.53;;;;;;;12.38;76.43;101011.09;3608520;39;20049;-64
2022/12/24 11:16:34;;;;;;;27.67;6.97;;;;;;;12.38;76.72;101014.66;3607476;39;20059;-64
2022/12/24 11:19:14;;;;;;;25.58;7.25;;;;;;;12.32;76.41;101020.44;3609475;39;20063;-64
2022/12/24 11:21:40;;;;;;;29.02;7.00;;;;;;;12.13;76.79;100976.81;3609887;39;20059;-64
2022/12/24 11:24:12;;;;;;;27.15;6.95;;;;;;;12.45;76.68;101023.19;3608874;39;20208;-64
2022/12/24 11:26:41;;;;;;;28.27;7.43;;;;;;;12.47;76.35;101016.75;3610341;39;20051;-65
2022/12/24 11:29:07;;;;;;;26.20;7.22;;;;;;;12.46;76.61;101024.91;3607534;39;20063;-64
2022/12/24 11:31:36;;;;;;;29.83;7.28;;;;;;;12.44;76.33;101029.56;3609313;39;20057;-64
2022/12/24 11:34:24;;;;;;;28.67;6.93;;;;;;;12.43;76.23;101034.09;3609065;39;20051;-66
2022/12/24 11:36:53;;;;;;;28.08;7.32;;;;;;;12.41;75.90;101024.38;3611851;39;20378;-64
2022/12/24 11:39:23;;;;;;;27.45;6.75;;;;;;;12.41;76.04;101025.25;3610283;39;20127;-64
2022/12/24 11:41:51;;;;;;;29.73;6.57;;;;;;;12.44;75.64;101029.56;3600869;39;20087;-64